createdAt,value
2019-04-25T00:00:41.995Z,0.00
2019-04-25T00:01:42.190Z,0.00
2019-04-25T00:02:42.308Z,0.00
2019-04-25T00:03:40.824Z,0.00
2019-04-25T00:04:42.271Z,0.00
2019-04-25T00:05:41.158Z,0.00
2019-04-25T00:06:41.137Z,0.00
2019-04-25T00:07:42.479Z,0.00
2019-04-25T00:08:41.305Z,0.00
2019-04-25T00:09:41.963Z,0.00
2019-04-25T00:10:41.968Z,0.00
2019-04-25T00:11:40.302Z,0.00
2019-04-25T00:12:42.363Z,0.00
2019-04-25T00:13:41.899Z,0.00
2019-04-25T00:14:41.673Z,0.00
2019-04-25T00:15:42.166Z,0.00
2019-04-25T00:16:41.385Z,0.00
2019-04-25T00:17:41.944Z,0.00
2019-04-25T00:18:41.857Z,0.00
2019-04-25T00:19:40.772Z,0.00
2019-04-25T00:20:42.335Z,0.00
2019-04-25T00:21:40.894Z,0.00
2019-04-25T00:22:42.203Z,0.00
2019-04-25T00:23:41.833Z,0.00
2019-04-25T00:24:41.454Z,0.00
2019-04-25T00:25:44.422Z,0.00
2019-04-25T00:26:40.205Z,0.00
2019-04-25T00:27:40.918Z,0.00
2019-04-25T00:28:42.028Z,0.00
2019-04-25T00:29:41.822Z,0.00
2019-04-25T00:30:40.830Z,0.00
2019-04-25T00:31:41.099Z,0.00
2019-04-25T00:32:42.159Z,0.00
2019-04-25T00:33:39.975Z,0.00
2019-04-25T00:34:40.861Z,0.00
2019-04-25T00:35:42.291Z,0.00
2019-04-25T00:36:40.713Z,0.00
2019-04-25T00:37:39.942Z,0.00
2019-04-25T00:38:39.935Z,0.00
2019-04-25T00:39:41.208Z,0.00
2019-04-25T00:40:39.869Z,0.00
2019-04-25T00:41:39.858Z,0.00
2019-04-25T00:42:41.606Z,0.00
2019-04-25T00:43:41.313Z,0.00
2019-04-25T00:44:39.809Z,0.00
2019-04-25T00:45:41.501Z,0.00
2019-04-25T00:46:39.779Z,0.00
2019-04-25T00:47:39.766Z,0.00
2019-04-25T00:48:39.766Z,0.00
2019-04-25T00:49:39.731Z,0.00
2019-04-25T00:50:39.723Z,0.00
2019-04-25T00:51:39.703Z,0.00
2019-04-25T00:52:41.445Z,0.00
2019-04-25T00:53:39.673Z,0.00
2019-04-25T00:54:41.240Z,0.00
2019-04-25T00:55:41.327Z,0.00
2019-04-25T00:56:39.629Z,0.00
2019-04-25T00:57:39.648Z,0.00
2019-04-25T00:58:39.623Z,0.00
2019-04-25T00:59:39.587Z,0.00
2019-04-25T01:00:39.597Z,0.00
2019-04-25T01:01:39.554Z,0.00
2019-04-25T01:02:39.544Z,0.00
2019-04-25T01:03:39.522Z,0.00
2019-04-25T01:04:39.535Z,0.00
2019-04-25T01:05:39.491Z,0.00
2019-04-25T01:06:39.481Z,0.00
2019-04-25T01:07:39.472Z,0.00
2019-04-25T01:08:39.449Z,0.00
2019-04-25T01:09:39.456Z,0.00
2019-04-25T01:10:39.419Z,0.00
2019-04-25T01:11:39.458Z,0.00
2019-04-25T01:12:39.385Z,0.00
2019-04-25T01:13:39.373Z,0.00
2019-04-25T01:14:39.357Z,0.00
2019-04-25T01:15:39.351Z,0.00
2019-04-25T01:16:39.326Z,0.00
2019-04-25T01:17:39.344Z,0.00
2019-04-25T01:18:39.327Z,0.00
2019-04-25T01:19:39.286Z,0.00
2019-04-25T01:20:39.269Z,0.00
2019-04-25T01:21:39.312Z,0.00
2019-04-25T01:22:39.235Z,0.00
2019-04-25T01:23:39.219Z,0.00
2019-04-25T01:24:39.214Z,0.00
2019-04-25T01:25:42.468Z,0.00
2019-04-25T01:26:39.176Z,0.00
2019-04-25T01:27:39.194Z,0.00
2019-04-25T01:28:39.170Z,0.00
2019-04-25T01:29:39.132Z,0.00
2019-04-25T01:30:39.118Z,0.00
2019-04-25T01:31:39.094Z,0.00
2019-04-25T01:32:39.213Z,0.00
2019-04-25T01:33:39.066Z,0.00
2019-04-25T01:34:39.060Z,0.00
2019-04-25T01:35:39.044Z,0.00
2019-04-25T01:36:39.021Z,0.00
2019-04-25T01:37:39.002Z,0.00
2019-04-25T01:38:39.042Z,0.00
2019-04-25T01:39:38.983Z,0.00
2019-04-25T01:40:38.970Z,0.00
2019-04-25T01:41:38.947Z,0.00
2019-04-25T01:42:38.929Z,0.00
2019-04-25T01:43:38.912Z,0.00
2019-04-25T01:44:38.910Z,0.00
2019-04-25T01:45:38.908Z,0.00
2019-04-25T01:46:38.867Z,0.00
2019-04-25T01:47:38.852Z,0.00
2019-04-25T01:48:38.880Z,0.00
2019-04-25T01:49:38.822Z,0.00
2019-04-25T01:50:38.835Z,0.00
2019-04-25T01:51:38.798Z,0.00
2019-04-25T01:52:38.778Z,0.00
2019-04-25T01:53:38.789Z,0.00
2019-04-25T01:54:38.749Z,0.00
2019-04-25T01:55:50.901Z,0.00
2019-04-25T01:56:38.741Z,0.00
2019-04-25T01:57:38.708Z,0.00
2019-04-25T01:58:38.685Z,0.00
2019-04-25T01:59:38.671Z,0.00
2019-04-25T02:00:38.687Z,0.00
2019-04-25T02:01:38.645Z,0.00
2019-04-25T02:02:38.623Z,0.00
2019-04-25T02:03:38.605Z,0.00
2019-04-25T02:04:38.597Z,0.00
2019-04-25T02:05:38.628Z,0.00
2019-04-25T02:06:38.556Z,0.00
2019-04-25T02:07:38.544Z,0.00
2019-04-25T02:08:38.533Z,0.00
2019-04-25T02:09:38.520Z,0.00
2019-04-25T02:10:38.496Z,0.00
2019-04-25T02:11:38.521Z,0.00
2019-04-25T02:12:38.472Z,0.00
2019-04-25T02:13:38.461Z,0.00
2019-04-25T02:14:38.440Z,0.00
2019-04-25T02:15:38.486Z,0.00
2019-04-25T02:16:38.410Z,0.00
2019-04-25T02:17:38.393Z,0.00
2019-04-25T02:18:38.379Z,0.00
2019-04-25T02:19:38.360Z,0.00
2019-04-25T02:20:38.340Z,0.00
2019-04-25T02:21:38.353Z,0.00
2019-04-25T02:22:38.309Z,0.00
2019-04-25T02:23:38.302Z,0.00
2019-04-25T02:24:38.286Z,0.00
2019-04-25T02:25:38.333Z,0.00
2019-04-25T02:26:38.255Z,0.00
2019-04-25T02:27:38.277Z,0.00
2019-04-25T02:28:38.237Z,0.00
2019-04-25T02:29:38.206Z,0.00
2019-04-25T02:30:38.196Z,0.00
2019-04-25T02:31:38.211Z,0.00
2019-04-25T02:32:38.159Z,0.00
2019-04-25T02:33:38.139Z,0.00
2019-04-25T02:34:38.125Z,0.00
2019-04-25T02:35:38.133Z,0.00
2019-04-25T02:36:38.093Z,0.00
2019-04-25T02:37:38.085Z,0.00
2019-04-25T02:38:38.073Z,0.00
2019-04-25T02:39:38.052Z,0.00
2019-04-25T02:40:38.059Z,0.00
2019-04-25T02:41:38.022Z,0.00
2019-04-25T02:42:37.993Z,0.00
2019-04-25T02:43:37.980Z,0.00
2019-04-25T02:44:37.993Z,0.00
2019-04-25T02:45:38.036Z,0.00
2019-04-25T02:46:37.939Z,0.00
2019-04-25T02:47:37.924Z,0.00
2019-04-25T02:48:37.916Z,0.00
2019-04-25T02:49:39.726Z,0.00
2019-04-25T02:50:37.879Z,0.00
2019-04-25T02:51:37.867Z,0.00
2019-04-25T02:52:37.886Z,0.00
2019-04-25T02:53:37.825Z,0.00
2019-04-25T02:54:37.819Z,0.00
2019-04-25T02:55:37.931Z,0.00
2019-04-25T02:56:38.979Z,0.00
2019-04-25T02:57:37.796Z,0.00
2019-04-25T02:58:37.752Z,0.00
2019-04-25T02:59:37.769Z,0.00
2019-04-25T03:00:51.609Z,0.00
2019-04-25T03:01:37.701Z,0.00
2019-04-25T03:02:37.711Z,0.00
2019-04-25T03:03:37.681Z,0.00
2019-04-25T03:04:37.653Z,0.00
2019-04-25T03:05:37.645Z,0.00
2019-04-25T03:06:37.624Z,0.00
2019-04-25T03:07:37.643Z,0.00
2019-04-25T03:08:37.703Z,0.00
2019-04-25T03:09:37.573Z,0.00
2019-04-25T03:10:37.567Z,0.00
2019-04-25T03:11:37.548Z,0.00
2019-04-25T03:12:37.534Z,0.00
2019-04-25T03:13:37.537Z,0.00
2019-04-25T03:14:37.492Z,0.00
2019-04-25T03:15:37.482Z,0.00
2019-04-25T03:16:37.469Z,0.00
2019-04-25T03:17:37.455Z,0.00
2019-04-25T03:18:37.453Z,0.00
2019-04-25T03:19:37.417Z,0.00
2019-04-25T03:20:37.411Z,0.00
2019-04-25T03:21:37.384Z,0.00
2019-04-25T03:22:37.393Z,0.00
2019-04-25T03:23:37.357Z,0.00
2019-04-25T03:24:37.349Z,0.00
2019-04-25T03:25:37.372Z,0.00
2019-04-25T03:26:40.427Z,0.00
2019-04-25T03:27:37.289Z,0.00
2019-04-25T03:28:37.278Z,0.00
2019-04-25T03:29:37.258Z,0.00
2019-04-25T03:30:37.241Z,0.00
2019-04-25T03:31:37.240Z,0.00
2019-04-25T03:32:37.215Z,0.00
2019-04-25T03:33:38.444Z,0.00
2019-04-25T03:34:37.181Z,0.00
2019-04-25T03:35:37.187Z,0.00
2019-04-25T03:36:37.159Z,0.00
2019-04-25T03:37:37.129Z,0.00
2019-04-25T03:38:37.136Z,0.00
2019-04-25T03:39:37.125Z,0.00
2019-04-25T03:40:37.084Z,0.00
2019-04-25T03:41:37.074Z,0.00
2019-04-25T03:42:37.093Z,4.00
2019-04-25T03:43:37.037Z,4.00
2019-04-25T03:44:37.043Z,0.00
2019-04-25T03:45:37.000Z,4.00
2019-04-25T03:46:36.991Z,4.00
2019-04-25T03:47:36.978Z,4.00
2019-04-25T03:48:37.144Z,4.00
2019-04-25T03:49:36.968Z,8.00
2019-04-25T03:50:36.934Z,4.00
2019-04-25T03:51:36.933Z,4.00
2019-04-25T03:52:36.899Z,12.00
2019-04-25T03:53:36.874Z,12.00
2019-04-25T03:54:36.858Z,12.00
2019-04-25T03:55:36.853Z,16.00
2019-04-25T03:56:36.860Z,12.00
2019-04-25T03:57:36.819Z,16.00
2019-04-25T03:58:36.797Z,20.00
2019-04-25T03:59:36.781Z,24.00
2019-04-25T04:00:36.821Z,28.00
2019-04-25T04:01:36.750Z,28.00
2019-04-25T04:02:36.739Z,32.00
2019-04-25T04:03:36.714Z,36.00
2019-04-25T04:04:36.703Z,40.00
2019-04-25T04:05:36.692Z,44.00
2019-04-25T04:06:36.682Z,48.00
2019-04-25T04:07:36.659Z,56.00
2019-04-25T04:08:36.635Z,60.00
2019-04-25T04:09:36.617Z,72.00
2019-04-25T04:10:36.613Z,76.00
2019-04-25T04:11:36.618Z,88.00
2019-04-25T04:12:36.577Z,96.00
2019-04-25T04:13:36.557Z,100.00
2019-04-25T04:14:36.542Z,112.00
2019-04-25T04:15:36.521Z,124.00
2019-04-25T04:16:36.548Z,132.00
2019-04-25T04:17:36.504Z,140.00
2019-04-25T04:18:36.479Z,152.00
2019-04-25T04:19:36.470Z,160.00
2019-04-25T04:20:36.447Z,172.00
2019-04-25T04:21:36.437Z,184.00
2019-04-25T04:22:36.418Z,192.00
2019-04-25T04:23:36.398Z,200.00
2019-04-25T04:24:36.380Z,216.00
2019-04-25T04:25:36.367Z,224.00
2019-04-25T04:26:36.377Z,236.00
2019-04-25T04:27:36.382Z,248.00
2019-04-25T04:28:36.316Z,260.00
2019-04-25T04:29:36.302Z,268.00
2019-04-25T04:30:36.279Z,280.00
2019-04-25T04:31:36.267Z,292.00
2019-04-25T04:32:36.271Z,304.00
2019-04-25T04:33:36.232Z,316.00
2019-04-25T04:34:36.226Z,324.00
2019-04-25T04:35:36.213Z,340.00
2019-04-25T04:36:36.184Z,348.00
2019-04-25T04:37:36.173Z,360.00
2019-04-25T04:38:36.197Z,372.00
2019-04-25T04:39:36.133Z,380.00
2019-04-25T04:40:36.234Z,392.00
2019-04-25T04:41:36.113Z,404.00
2019-04-25T04:42:36.092Z,416.00
2019-04-25T04:43:36.107Z,424.00
2019-04-25T04:44:36.058Z,436.00
2019-04-25T04:45:36.041Z,444.00
2019-04-25T04:46:36.023Z,456.00
2019-04-25T04:47:36.012Z,464.00
2019-04-25T04:48:36.019Z,472.00
2019-04-25T04:49:36.006Z,488.00
2019-04-25T04:50:35.970Z,500.00
2019-04-25T04:51:35.952Z,508.00
2019-04-25T04:52:35.957Z,520.00
2019-04-25T04:53:35.920Z,532.00
2019-04-25T04:54:35.922Z,544.00
2019-04-25T04:55:35.881Z,556.00
2019-04-25T04:56:35.864Z,564.00
2019-04-25T04:57:36.348Z,572.00
2019-04-25T04:58:35.868Z,580.00
2019-04-25T04:59:35.847Z,596.00
2019-04-25T05:00:35.809Z,604.00
2019-04-25T05:01:35.791Z,612.00
2019-04-25T05:02:35.777Z,620.00
2019-04-25T05:03:35.768Z,628.00
2019-04-25T05:04:35.760Z,636.00
2019-04-25T05:05:35.726Z,648.00
2019-04-25T05:06:35.708Z,652.00
2019-04-25T05:07:35.695Z,664.00
2019-04-25T05:08:35.673Z,672.00
2019-04-25T05:09:35.677Z,688.00
2019-04-25T05:10:35.651Z,696.00
2019-04-25T05:11:35.630Z,708.00
2019-04-25T05:12:35.611Z,720.00
2019-04-25T05:13:35.587Z,736.00
2019-04-25T05:14:35.649Z,744.00
2019-04-25T05:15:35.564Z,752.00
2019-04-25T05:16:35.547Z,756.00
2019-04-25T05:17:35.531Z,768.00
2019-04-25T05:18:39.493Z,772.00
2019-04-25T05:19:35.508Z,776.00
2019-04-25T05:20:35.674Z,784.00
2019-04-25T05:21:35.465Z,796.00
2019-04-25T05:22:35.487Z,808.00
2019-04-25T05:23:35.432Z,816.00
2019-04-25T05:24:35.421Z,828.00
2019-04-25T05:25:35.411Z,840.00
2019-04-25T05:26:35.385Z,848.00
2019-04-25T05:27:46.390Z,856.00
2019-04-25T05:28:35.357Z,868.00
2019-04-25T05:29:35.368Z,876.00
2019-04-25T05:30:35.323Z,888.00
2019-04-25T05:31:35.318Z,896.00
2019-04-25T05:32:35.316Z,904.00
2019-04-25T05:33:35.284Z,912.00
2019-04-25T05:34:35.296Z,924.00
2019-04-25T05:35:35.249Z,932.00
2019-04-25T05:36:35.231Z,940.00
2019-04-25T05:37:35.245Z,944.00
2019-04-25T05:38:35.201Z,948.00
2019-04-25T05:39:35.192Z,960.00
2019-04-25T05:40:35.198Z,968.00
2019-04-25T05:41:35.958Z,980.00
2019-04-25T05:42:35.134Z,988.00
2019-04-25T05:43:35.124Z,996.00
2019-04-25T05:44:35.111Z,1008.00
2019-04-25T05:45:35.118Z,1016.00
2019-04-25T05:46:35.074Z,1024.00
2019-04-25T05:47:35.061Z,1032.00
2019-04-25T05:48:35.040Z,1052.00
2019-04-25T05:49:35.024Z,1076.00
2019-04-25T05:50:35.044Z,1084.00
2019-04-25T05:51:35.026Z,1084.00
2019-04-25T05:52:34.989Z,1088.00
2019-04-25T05:53:34.962Z,1108.00
2019-04-25T05:54:34.962Z,1140.00
2019-04-25T05:55:34.935Z,1156.00
2019-04-25T05:56:34.947Z,1164.00
2019-04-25T05:57:45.619Z,1172.00
2019-04-25T05:58:34.897Z,1180.00
2019-04-25T05:59:34.872Z,1196.00
2019-04-25T06:00:34.865Z,1212.00
2019-04-25T06:01:35.791Z,1216.00
2019-04-25T06:02:34.835Z,1228.00
2019-04-25T06:03:34.815Z,1264.00
2019-04-25T06:04:34.801Z,1288.00
2019-04-25T06:05:34.779Z,1300.00
2019-04-25T06:06:36.580Z,1312.00
2019-04-25T06:07:34.756Z,1328.00
2019-04-25T06:08:34.728Z,1336.00
2019-04-25T06:09:35.762Z,1348.00
2019-04-25T06:10:34.710Z,1356.00
2019-04-25T06:11:34.690Z,1368.00
2019-04-25T06:12:34.683Z,1372.00
2019-04-25T06:13:34.658Z,1384.00
2019-04-25T06:14:34.637Z,1388.00
2019-04-25T06:15:34.627Z,1396.00
2019-04-25T06:16:34.620Z,1404.00
2019-04-25T06:17:34.621Z,1416.00
2019-04-25T06:18:34.585Z,1412.00
2019-04-25T06:19:34.569Z,1412.00
2019-04-25T06:20:34.558Z,1408.00
2019-04-25T06:21:34.547Z,1408.00
2019-04-25T06:22:34.544Z,1440.00
2019-04-25T06:23:34.526Z,1468.00
2019-04-25T06:24:34.496Z,1492.00
2019-04-25T06:25:39.431Z,1516.00
2019-04-25T06:26:39.554Z,1548.00
2019-04-25T06:27:35.237Z,1568.00
2019-04-25T06:28:34.673Z,1604.00
2019-04-25T06:29:34.863Z,1652.00
2019-04-25T06:30:35.252Z,1700.00
2019-04-25T06:31:34.384Z,1756.00
2019-04-25T06:32:35.482Z,1852.00
2019-04-25T06:33:34.425Z,1972.00
2019-04-25T06:34:36.302Z,2016.00
2019-04-25T06:35:35.770Z,2044.00
2019-04-25T06:36:35.352Z,2064.00
2019-04-25T06:37:35.151Z,2076.00
2019-04-25T06:38:34.281Z,2088.00
2019-04-25T06:39:34.299Z,2120.00
2019-04-25T06:40:34.616Z,2152.00
2019-04-25T06:41:35.312Z,2184.00
2019-04-25T06:42:34.681Z,2236.00
2019-04-25T06:43:34.327Z,2268.00
2019-04-25T06:44:34.611Z,2312.00
2019-04-25T06:45:34.523Z,2376.00
2019-04-25T06:46:34.168Z,2408.00
2019-04-25T06:47:34.189Z,2400.00
2019-04-25T06:48:35.158Z,2372.00
2019-04-25T06:49:36.516Z,2332.00
2019-04-25T06:50:35.279Z,2276.00
2019-04-25T06:51:34.345Z,2164.00
2019-04-25T06:52:35.397Z,2036.00
2019-04-25T06:53:34.616Z,2004.00
2019-04-25T06:54:35.271Z,2000.00
2019-04-25T06:55:34.392Z,2048.00
2019-04-25T06:56:34.506Z,2108.00
2019-04-25T06:57:34.215Z,2108.00
2019-04-25T06:58:34.249Z,2080.00
2019-04-25T06:59:34.457Z,2036.00
2019-04-25T07:00:40.558Z,1916.00
2019-04-25T07:01:34.689Z,1804.00
2019-04-25T07:02:35.176Z,1740.00
2019-04-25T07:03:35.606Z,1664.00
2019-04-25T07:04:34.838Z,1620.00
2019-04-25T07:05:40.179Z,1624.00
2019-04-25T07:06:34.688Z,1632.00
2019-04-25T07:07:35.138Z,1680.00
2019-04-25T07:08:35.387Z,1740.00
2019-04-25T07:09:34.927Z,1772.00
2019-04-25T07:10:34.873Z,1780.00
2019-04-25T07:11:34.843Z,1832.00
2019-04-25T07:12:34.843Z,1852.00
2019-04-25T07:13:35.731Z,1864.00
2019-04-25T07:14:36.679Z,1808.00
2019-04-25T07:15:34.192Z,1820.00
2019-04-25T07:16:34.650Z,1860.00
2019-04-25T07:17:34.980Z,1888.00
2019-04-25T07:18:36.306Z,1940.00
2019-04-25T07:19:34.396Z,2044.00
2019-04-25T07:20:34.546Z,2160.00
2019-04-25T07:21:34.676Z,2284.00
2019-04-25T07:22:35.029Z,2416.00
2019-04-25T07:23:34.637Z,2492.00
2019-04-25T07:24:35.244Z,2500.00
2019-04-25T07:25:35.337Z,2376.00
2019-04-25T07:26:37.088Z,2300.00
2019-04-25T07:27:34.669Z,2252.00
2019-04-25T07:28:35.680Z,2232.00
2019-04-25T07:29:34.584Z,2220.00
2019-04-25T07:30:49.305Z,2140.00
2019-04-25T07:31:34.518Z,1952.00
2019-04-25T07:32:34.829Z,1752.00
2019-04-25T07:33:34.738Z,1772.00
2019-04-25T07:34:34.111Z,1896.00
2019-04-25T07:35:34.606Z,1968.00
2019-04-25T07:36:34.846Z,1920.00
2019-04-25T07:37:34.912Z,1884.00
2019-04-25T07:38:34.042Z,2048.00
2019-04-25T07:39:34.428Z,2076.00
2019-04-25T07:40:34.920Z,2096.00
2019-04-25T07:41:34.299Z,2256.00
2019-04-25T07:42:34.245Z,2216.00
2019-04-25T07:43:34.176Z,2184.00
2019-04-25T07:44:42.911Z,2192.00
2019-04-25T07:45:34.693Z,2380.00
2019-04-25T07:46:37.297Z,2392.00
2019-04-25T07:47:34.864Z,2436.00
2019-04-25T07:48:36.330Z,2316.00
2019-04-25T07:49:34.701Z,2348.00
2019-04-25T07:50:34.323Z,2332.00
2019-04-25T07:51:34.580Z,2428.00
2019-04-25T07:52:34.320Z,2564.00
2019-04-25T07:53:34.605Z,2756.00
2019-04-25T07:54:34.385Z,2780.00
2019-04-25T07:55:35.893Z,2804.00
2019-04-25T07:56:34.985Z,2896.00
2019-04-25T07:57:34.433Z,3108.00
2019-04-25T07:58:43.823Z,2996.00
2019-04-25T07:59:34.814Z,3232.00
2019-04-25T08:00:35.169Z,3728.00
2019-04-25T08:01:33.514Z,3668.00
2019-04-25T08:02:34.115Z,4024.00
2019-04-25T08:03:34.417Z,4532.00
2019-04-25T08:04:34.872Z,5120.00
2019-04-25T08:05:35.318Z,5092.00
2019-04-25T08:06:34.464Z,4812.00
2019-04-25T08:07:33.932Z,4764.00
2019-04-25T08:08:33.961Z,5020.00
2019-04-25T08:09:35.227Z,4976.00
2019-04-25T08:10:33.868Z,4912.00
2019-04-25T08:11:34.177Z,5096.00
2019-04-25T08:12:34.667Z,5384.00
2019-04-25T08:13:34.269Z,5436.00
2019-04-25T08:14:34.167Z,5420.00
2019-04-25T08:15:33.906Z,5308.00
2019-04-25T08:16:34.381Z,5344.00
2019-04-25T08:17:35.799Z,5452.00
2019-04-25T08:18:32.917Z,5332.00
2019-04-25T08:19:33.524Z,4936.00
2019-04-25T08:20:34.443Z,4512.00
2019-04-25T08:21:34.390Z,4160.00
2019-04-25T08:22:34.523Z,3740.00
2019-04-25T08:23:36.671Z,3624.00
2019-04-25T08:24:34.592Z,3536.00
2019-04-25T08:25:33.489Z,3660.00
2019-04-25T08:26:34.968Z,3804.00
2019-04-25T08:27:34.327Z,3944.00
2019-04-25T08:28:34.416Z,6072.00
2019-04-25T08:29:36.324Z,5944.00
2019-04-25T08:30:35.190Z,5412.00
2019-04-25T08:31:34.784Z,5864.00
2019-04-25T08:32:35.094Z,6816.00
2019-04-25T08:33:34.304Z,8312.00
2019-04-25T08:34:34.436Z,10128.00
2019-04-25T08:35:34.163Z,9880.00
2019-04-25T08:36:33.818Z,12276.00
2019-04-25T08:37:34.409Z,13228.00
2019-04-25T08:38:34.651Z,9112.00
2019-04-25T08:39:34.038Z,11448.00
2019-04-25T08:40:35.009Z,17632.00
2019-04-25T08:41:34.850Z,18432.00
2019-04-25T08:42:34.574Z,14112.00
2019-04-25T08:43:36.346Z,20064.00
2019-04-25T08:44:34.517Z,29728.00
2019-04-25T08:45:33.580Z,26976.00
2019-04-25T08:46:35.432Z,7648.00
2019-04-25T08:47:34.705Z,12852.00
2019-04-25T08:48:34.479Z,21792.00
2019-04-25T08:49:34.721Z,39008.00
2019-04-25T08:50:35.853Z,29440.00
2019-04-25T08:51:34.800Z,32256.00
2019-04-25T08:52:35.051Z,28928.00
2019-04-25T08:53:34.481Z,26240.00
2019-04-25T08:54:34.361Z,7320.00
2019-04-25T08:55:34.587Z,6472.00
2019-04-25T08:56:34.253Z,6152.00
2019-04-25T08:57:33.873Z,7032.00
2019-04-25T08:58:34.463Z,10556.00
2019-04-25T08:59:39.769Z,11480.00
2019-04-25T09:00:33.059Z,12252.00
2019-04-25T09:01:36.490Z,10544.00
2019-04-25T09:02:34.474Z,8180.00
2019-04-25T09:03:34.028Z,8956.00
2019-04-25T09:04:33.188Z,8760.00
2019-04-25T09:05:33.384Z,9984.00
2019-04-25T09:06:33.316Z,10192.00
2019-04-25T09:07:34.938Z,9084.00
2019-04-25T09:08:33.033Z,8980.00
2019-04-25T09:09:35.022Z,8352.00
2019-04-25T09:10:35.249Z,14112.00
2019-04-25T09:11:34.482Z,11272.00
2019-04-25T09:12:35.004Z,14112.00
2019-04-25T09:13:33.047Z,16672.00
2019-04-25T09:14:32.380Z,15840.00
2019-04-25T09:15:33.002Z,23552.00
2019-04-25T09:16:34.525Z,70752.00
2019-04-25T09:17:33.174Z,10264.00
2019-04-25T09:18:34.725Z,8428.00
2019-04-25T09:19:33.370Z,8232.00
2019-04-25T09:20:34.867Z,7528.00
2019-04-25T09:21:34.116Z,7020.00
2019-04-25T09:22:32.217Z,7416.00
2019-04-25T09:23:34.416Z,7436.00
2019-04-25T09:24:32.175Z,7640.00
2019-04-25T09:25:34.525Z,8504.00
2019-04-25T09:26:33.919Z,10760.00
2019-04-25T09:27:34.305Z,11208.00
2019-04-25T09:28:35.050Z,13952.00
2019-04-25T09:29:34.338Z,11404.00
2019-04-25T09:30:32.119Z,10864.00
2019-04-25T09:31:34.546Z,10700.00
2019-04-25T09:32:33.749Z,11032.00
2019-04-25T09:33:32.104Z,12144.00
2019-04-25T09:34:33.531Z,13204.00
2019-04-25T09:35:33.511Z,14976.00
2019-04-25T09:36:33.529Z,39232.00
2019-04-25T09:37:33.494Z,43712.00
2019-04-25T09:38:32.077Z,9372.00
2019-04-25T09:39:33.590Z,62304.00
2019-04-25T09:40:32.046Z,35744.00
2019-04-25T09:41:33.485Z,62368.00
2019-04-25T09:42:33.683Z,37792.00
2019-04-25T09:43:33.494Z,45120.00
2019-04-25T09:44:32.023Z,33184.00
2019-04-25T09:45:33.445Z,47168.00
2019-04-25T09:46:32.003Z,42816.00
2019-04-25T09:47:33.441Z,12984.00
2019-04-25T09:48:32.008Z,16960.00
2019-04-25T09:49:34.980Z,16544.00
2019-04-25T09:50:31.963Z,16928.00
2019-04-25T09:51:33.474Z,18432.00
2019-04-25T09:52:31.955Z,13116.00
2019-04-25T09:53:31.966Z,6712.00
2019-04-25T09:54:33.345Z,8692.00
2019-04-25T09:55:31.925Z,11436.00
2019-04-25T09:56:31.933Z,16512.00
2019-04-25T09:57:33.542Z,30464.00
2019-04-25T09:58:31.924Z,30688.00
2019-04-25T09:59:33.201Z,21024.00
2019-04-25T10:00:33.433Z,18720.00
2019-04-25T10:01:31.874Z,37568.00
2019-04-25T10:02:31.862Z,26848.00
2019-04-25T10:03:33.277Z,15072.00
2019-04-25T10:04:34.495Z,33920.00
2019-04-25T10:05:31.832Z,19296.00
2019-04-25T10:06:33.220Z,28992.00
2019-04-25T10:07:31.820Z,40320.00
2019-04-25T10:08:31.829Z,36064.00
2019-04-25T10:09:31.796Z,42464.00
2019-04-25T10:10:31.790Z,27872.00
2019-04-25T10:11:33.419Z,45920.00
2019-04-25T10:12:31.799Z,24320.00
2019-04-25T10:13:33.592Z,18880.00
2019-04-25T10:14:31.756Z,21952.00
2019-04-25T10:15:31.754Z,11776.00
2019-04-25T10:16:31.729Z,12280.00
2019-04-25T10:17:31.731Z,7448.00
2019-04-25T10:18:33.338Z,9596.00
2019-04-25T10:19:31.733Z,10424.00
2019-04-25T10:20:33.274Z,8924.00
2019-04-25T10:21:31.685Z,7228.00
2019-04-25T10:22:31.707Z,10088.00
2019-04-25T10:23:31.673Z,11104.00
2019-04-25T10:24:31.688Z,6100.00
2019-04-25T10:25:33.323Z,9356.00
2019-04-25T10:26:31.637Z,7912.00
2019-04-25T10:27:31.638Z,34624.00
2019-04-25T10:28:33.442Z,15680.00
2019-04-25T10:29:41.578Z,6492.00
2019-04-25T10:30:31.610Z,6048.00
2019-04-25T10:31:31.594Z,6372.00
2019-04-25T10:32:31.585Z,4896.00
2019-04-25T10:33:31.575Z,5224.00
2019-04-25T10:34:33.250Z,7192.00
2019-04-25T10:35:34.234Z,9392.00
2019-04-25T10:36:31.559Z,9916.00
2019-04-25T10:37:31.539Z,9512.00
2019-04-25T10:38:33.471Z,8008.00
2019-04-25T10:39:31.540Z,7264.00
2019-04-25T10:40:31.533Z,5160.00
2019-04-25T10:41:33.298Z,4120.00
2019-04-25T10:42:31.488Z,3436.00
2019-04-25T10:43:31.479Z,3112.00
2019-04-25T10:44:31.465Z,2740.00
2019-04-25T10:45:31.464Z,2560.00
2019-04-25T10:46:31.445Z,2728.00
2019-04-25T10:47:31.446Z,3172.00
2019-04-25T10:48:31.427Z,3664.00
2019-04-25T10:49:31.422Z,4028.00
2019-04-25T10:50:31.438Z,4304.00
2019-04-25T10:51:31.402Z,5056.00
2019-04-25T10:52:31.384Z,6152.00
2019-04-25T10:53:31.382Z,7080.00
2019-04-25T10:54:31.390Z,5952.00
2019-04-25T10:55:31.359Z,5412.00
2019-04-25T10:56:31.350Z,5608.00
2019-04-25T10:57:31.335Z,9364.00
2019-04-25T10:58:31.321Z,7928.00
2019-04-25T10:59:31.340Z,5648.00
2019-04-25T11:00:31.302Z,5408.00
2019-04-25T11:01:31.319Z,5248.00
2019-04-25T11:02:31.278Z,6148.00
2019-04-25T11:03:31.264Z,6724.00
2019-04-25T11:04:31.261Z,5920.00
2019-04-25T11:05:31.274Z,6580.00
2019-04-25T11:06:31.259Z,6472.00
2019-04-25T11:07:31.228Z,6552.00
2019-04-25T11:08:31.216Z,6080.00
2019-04-25T11:09:31.202Z,6200.00
2019-04-25T11:10:31.203Z,7152.00
2019-04-25T11:11:31.216Z,5836.00
2019-04-25T11:12:31.178Z,5824.00
2019-04-25T11:13:31.170Z,6740.00
2019-04-25T11:14:31.154Z,8384.00
2019-04-25T11:15:31.145Z,7032.00
2019-04-25T11:16:31.160Z,5768.00
2019-04-25T11:17:31.124Z,4796.00
2019-04-25T11:18:31.118Z,4444.00
2019-04-25T11:19:31.101Z,4812.00
2019-04-25T11:20:31.099Z,6012.00
2019-04-25T11:21:31.080Z,6764.00
2019-04-25T11:22:31.082Z,7028.00
2019-04-25T11:23:31.056Z,7392.00
2019-04-25T11:24:31.042Z,7700.00
2019-04-25T11:25:31.038Z,7852.00
2019-04-25T11:26:31.160Z,8240.00
2019-04-25T11:27:31.013Z,9240.00
2019-04-25T11:28:31.015Z,12208.00
2019-04-25T11:29:31.003Z,12020.00
2019-04-25T11:30:30.988Z,13136.00
2019-04-25T11:31:30.970Z,13272.00
2019-04-25T11:32:30.975Z,10604.00
2019-04-25T11:33:30.958Z,12740.00
2019-04-25T11:34:30.949Z,25920.00
2019-04-25T11:35:30.940Z,16384.00
2019-04-25T11:36:31.080Z,14784.00
2019-04-25T11:37:30.919Z,14272.00
2019-04-25T11:38:31.018Z,20960.00
2019-04-25T11:39:30.907Z,14784.00
2019-04-25T11:40:30.898Z,38464.00
2019-04-25T11:41:30.881Z,15520.00
2019-04-25T11:42:30.896Z,64704.00
2019-04-25T11:43:30.880Z,14880.00
2019-04-25T11:44:30.857Z,16448.00
2019-04-25T11:45:30.849Z,11064.00
2019-04-25T11:46:30.834Z,11164.00
2019-04-25T11:47:30.858Z,8980.00
2019-04-25T11:48:30.816Z,12444.00
2019-04-25T11:49:30.815Z,12100.00
2019-04-25T11:50:30.805Z,11736.00
2019-04-25T11:51:30.792Z,11840.00
2019-04-25T11:52:30.857Z,12692.00
2019-04-25T11:53:30.773Z,13012.00
2019-04-25T11:54:30.806Z,13188.00
2019-04-25T11:55:30.775Z,21728.00
2019-04-25T11:56:30.751Z,16000.00
2019-04-25T11:57:30.772Z,22560.00
2019-04-25T11:58:30.780Z,15456.00
2019-04-25T11:59:30.726Z,13724.00
2019-04-25T12:00:30.712Z,57728.00
2019-04-25T12:01:30.715Z,16192.00
2019-04-25T12:02:30.700Z,24128.00
2019-04-25T12:03:30.702Z,12288.00
2019-04-25T12:04:30.716Z,11684.00
2019-04-25T12:05:30.683Z,9376.00
2019-04-25T12:06:30.684Z,7932.00
2019-04-25T12:07:30.687Z,8364.00
2019-04-25T12:08:30.651Z,8464.00
2019-04-25T12:09:30.642Z,9236.00
2019-04-25T12:10:30.639Z,9120.00
2019-04-25T12:11:30.646Z,8616.00
2019-04-25T12:12:30.665Z,8612.00
2019-04-25T12:13:30.621Z,8500.00
2019-04-25T12:14:30.605Z,10412.00
2019-04-25T12:15:30.598Z,15168.00
2019-04-25T12:16:30.589Z,59712.00
2019-04-25T12:17:30.605Z,23264.00
2019-04-25T12:18:33.285Z,23008.00
2019-04-25T12:19:35.871Z,12288.00
2019-04-25T12:20:30.556Z,15744.00
2019-04-25T12:21:30.544Z,14240.00
2019-04-25T12:22:30.548Z,17920.00
2019-04-25T12:23:30.536Z,52192.00
2019-04-25T12:24:30.529Z,27936.00
2019-04-25T12:25:30.519Z,27904.00
2019-04-25T12:26:30.515Z,18720.00